Terminal Aerodrome Forecast
Issued by NWS Charleston, WV

Current Version | Previous Version | Graphics & Text | Print | Product List | Glossary On
Versions: 1 2 3 4 5 6 7 8 9 10 11 12 13 14 15 16 17 18 19 20 21 22 23
000
FTUS41 KRLX 221735
TAFPKB
TAF
KPKB 221735Z 2218/2318 00000KT P6SM FEW250
     FM230700 00000KT 5SM BR SCT250
     FM230800 00000KT 2SM BR SCT250
     FM230900 00000KT 1/4SM FG VV001
     FM231400 00000KT 2SM BR BKN002
     FM231500 00000KT 5SM BR SCT002
     FM231600 00000KT P6SM FEW250=

USA.gov is the U.S. government's official web portal to all federal, state and local government web resources and services.